sensor_id;sensor_type;location;lat;lon;timestamp;temperature;humidity
27266;DHT22;14766;51.380;13.762;2022-09-23T00:01:18;12.50;56.00
27266;DHT22;14766;51.380;13.762;2022-09-23T00:03:45;12.50;56.10
27266;DHT22;14766;51.380;13.762;2022-09-23T00:06:19;12.50;56.10
27266;DHT22;14766;51.380;13.762;2022-09-23T00:08:47;12.40;56.10
27266;DHT22;14766;51.380;13.762;2022-09-23T00:11:20;12.40;56.00
27266;DHT22;14766;51.380;13.762;2022-09-23T00:13:50;12.40;56.10
27266;DHT22;14766;51.380;13.762;2022-09-23T00:16:21;12.30;56.10
27266;DHT22;14766;51.380;13.762;2022-09-23T00:18:48;12.30;56.10
27266;DHT22;14766;51.380;13.762;2022-09-23T00:21:18;12.30;56.10
27266;DHT22;14766;51.380;13.762;2022-09-23T00:23:46;12.30;56.10
27266;DHT22;14766;51.380;13.762;2022-09-23T00:26:15;12.30;56.10
27266;DHT22;14766;51.380;13.762;2022-09-23T00:28:43;12.20;56.10
27266;DHT22;14766;51.380;13.762;2022-09-23T00:31:13;12.20;56.10
27266;DHT22;14766;51.380;13.762;2022-09-23T00:33:41;12.20;56.10
27266;DHT22;14766;51.380;13.762;2022-09-23T00:36:11;12.20;56.20
27266;DHT22;14766;51.380;13.762;2022-09-23T00:38:45;12.10;56.20
27266;DHT22;14766;51.380;13.762;2022-09-23T00:41:13;12.10;56.20
27266;DHT22;14766;51.380;13.762;2022-09-23T00:43:47;12.10;56.20
27266;DHT22;14766;51.380;13.762;2022-09-23T00:46:40;12.10;56.20
27266;DHT22;14766;51.380;13.762;2022-09-23T00:49:27;12.10;56.30
27266;DHT22;14766;51.380;13.762;2022-09-23T00:52:01;12.00;56.10
27266;DHT22;14766;51.380;13.762;2022-09-23T00:54:32;12.00;56.10
27266;DHT22;14766;51.380;13.762;2022-09-23T00:57:00;12.00;56.10
27266;DHT22;14766;51.380;13.762;2022-09-23T00:59:28;12.00;56.10
27266;DHT22;14766;51.380;13.762;2022-09-23T01:01:56;12.00;56.10
27266;DHT22;14766;51.380;13.762;2022-09-23T01:04:26;12.00;56.10
27266;DHT22;14766;51.380;13.762;2022-09-23T01:06:53;12.00;56.10
27266;DHT22;14766;51.380;13.762;2022-09-23T01:09:21;12.00;56.10
27266;DHT22;14766;51.380;13.762;2022-09-23T01:14:47;11.90;55.80
27266;DHT22;14766;51.380;13.762;2022-09-23T01:17:48;11.90;55.70
27266;DHT22;14766;51.380;13.762;2022-09-23T01:20:41;11.80;55.60
27266;DHT22;14766;51.380;13.762;2022-09-23T01:23:45;11.80;55.60
27266;DHT22;14766;51.380;13.762;2022-09-23T01:29:20;11.80;55.60
27266;DHT22;14766;51.380;13.762;2022-09-23T01:37:54;11.70;55.80
27266;DHT22;14766;51.380;13.762;2022-09-23T01:40:44;11.60;55.80
27266;DHT22;14766;51.380;13.762;2022-09-23T01:43:21;11.60;55.80
27266;DHT22;14766;51.380;13.762;2022-09-23T01:45:56;11.60;55.80
27266;DHT22;14766;51.380;13.762;2022-09-23T01:48:30;11.50;55.80
27266;DHT22;14766;51.380;13.762;2022-09-23T01:53:48;11.50;55.70
27266;DHT22;14766;51.380;13.762;2022-09-23T01:56:24;11.50;55.70
27266;DHT22;14766;51.380;13.762;2022-09-23T01:59:19;11.40;55.60
27266;DHT22;14766;51.380;13.762;2022-09-23T02:01:54;11.40;55.70
27266;DHT22;14766;51.380;13.762;2022-09-23T02:04:28;11.40;55.70
27266;DHT22;14766;51.380;13.762;2022-09-23T02:07:10;11.30;55.70
27266;DHT22;14766;51.380;13.762;2022-09-23T02:09:45;11.30;55.80
27266;DHT22;14766;51.380;13.762;2022-09-23T02:12:17;11.30;55.80
27266;DHT22;14766;51.380;13.762;2022-09-23T02:14:53;11.30;55.80
27266;DHT22;14766;51.380;13.762;2022-09-23T02:17:30;11.30;55.80
27266;DHT22;14766;51.380;13.762;2022-09-23T02:20:03;11.20;55.80
27266;DHT22;14766;51.380;13.762;2022-09-23T02:22:40;11.20;55.80
27266;DHT22;14766;51.380;13.762;2022-09-23T02:25:10;11.10;55.80
27266;DHT22;14766;51.380;13.762;2022-09-23T02:27:45;11.10;55.90
27266;DHT22;14766;51.380;13.762;2022-09-23T02:30:19;11.00;56.00
27266;DHT22;14766;51.380;13.762;2022-09-23T02:32:53;11.00;56.10
27266;DHT22;14766;51.380;13.762;2022-09-23T02:35:54;11.00;56.30
27266;DHT22;14766;51.380;13.762;2022-09-23T02:38:55;10.90;56.30
27266;DHT22;14766;51.380;13.762;2022-09-23T02:41:31;10.90;57.20
27266;DHT22;14766;51.380;13.762;2022-09-23T02:44:08;10.90;56.50
27266;DHT22;14766;51.380;13.762;2022-09-23T02:46:36;10.90;56.60
27266;DHT22;14766;51.380;13.762;2022-09-23T02:49:22;10.90;56.70
27266;DHT22;14766;51.380;13.762;2022-09-23T02:51:50;10.80;56.80
27266;DHT22;14766;51.380;13.762;2022-09-23T02:54:19;10.80;56.80
27266;DHT22;14766;51.380;13.762;2022-09-23T02:56:47;10.90;56.70
27266;DHT22;14766;51.380;13.762;2022-09-23T02:59:20;10.80;56.60
27266;DHT22;14766;51.380;13.762;2022-09-23T03:16:02;10.80;56.00
27266;DHT22;14766;51.380;13.762;2022-09-23T03:18:51;10.80;56.00
27266;DHT22;14766;51.380;13.762;2022-09-23T03:21:27;10.70;55.80
27266;DHT22;14766;51.380;13.762;2022-09-23T03:23:58;10.70;55.90
27266;DHT22;14766;51.380;13.762;2022-09-23T03:26:29;10.70;55.90
27266;DHT22;14766;51.380;13.762;2022-09-23T03:29:00;10.70;56.00
27266;DHT22;14766;51.380;13.762;2022-09-23T03:31:28;10.60;55.90
27266;DHT22;14766;51.380;13.762;2022-09-23T03:33:58;10.60;55.90
27266;DHT22;14766;51.380;13.762;2022-09-23T03:39:40;10.50;56.00
27266;DHT22;14766;51.380;13.762;2022-09-23T03:44:48;10.50;56.10
27266;DHT22;14766;51.380;13.762;2022-09-23T03:47:19;10.40;56.10
27266;DHT22;14766;51.380;13.762;2022-09-23T03:49:48;10.40;56.10
27266;DHT22;14766;51.380;13.762;2022-09-23T03:52:17;10.30;56.10
27266;DHT22;14766;51.380;13.762;2022-09-23T03:54:44;10.30;56.10
27266;DHT22;14766;51.380;13.762;2022-09-23T03:57:13;10.30;56.20
27266;DHT22;14766;51.380;13.762;2022-09-23T03:59:40;10.30;56.30
27266;DHT22;14766;51.380;13.762;2022-09-23T04:02:08;10.30;56.30
27266;DHT22;14766;51.380;13.762;2022-09-23T04:04:36;10.20;56.30
27266;DHT22;14766;51.380;13.762;2022-09-23T04:07:03;10.20;56.40
27266;DHT22;14766;51.380;13.762;2022-09-23T04:09:31;10.20;56.40
27266;DHT22;14766;51.380;13.762;2022-09-23T04:11:59;10.20;56.40
27266;DHT22;14766;51.380;13.762;2022-09-23T04:14:26;10.20;56.40
27266;DHT22;14766;51.380;13.762;2022-09-23T04:16:53;10.20;56.40
27266;DHT22;14766;51.380;13.762;2022-09-23T04:19:20;10.20;56.40
27266;DHT22;14766;51.380;13.762;2022-09-23T04:21:48;10.20;56.40
27266;DHT22;14766;51.380;13.762;2022-09-23T04:24:15;10.10;56.30
27266;DHT22;14766;51.380;13.762;2022-09-23T04:26:43;10.20;56.20
27266;DHT22;14766;51.380;13.762;2022-09-23T04:29:10;10.10;56.20
27266;DHT22;14766;51.380;13.762;2022-09-23T04:31:37;10.10;56.20
27266;DHT22;14766;51.380;13.762;2022-09-23T04:34:05;10.10;56.30
27266;DHT22;14766;51.380;13.762;2022-09-23T04:36:32;10.10;56.30
27266;DHT22;14766;51.380;13.762;2022-09-23T04:39:00;10.00;56.30
27266;DHT22;14766;51.380;13.762;2022-09-23T04:41:28;10.00;56.30
27266;DHT22;14766;51.380;13.762;2022-09-23T04:43:55;10.00;56.30
27266;DHT22;14766;51.380;13.762;2022-09-23T04:46:23;10.00;56.40
27266;DHT22;14766;51.380;13.762;2022-09-23T04:48:50;10.00;56.30
27266;DHT22;14766;51.380;13.762;2022-09-23T04:51:19;9.90;56.30
27266;DHT22;14766;51.380;13.762;2022-09-23T04:53:48;9.90;56.50
27266;DHT22;14766;51.380;13.762;2022-09-23T04:56:18;9.90;56.60
27266;DHT22;14766;51.380;13.762;2022-09-23T04:58:47;9.90;56.70
27266;DHT22;14766;51.380;13.762;2022-09-23T05:03:42;9.80;56.80
27266;DHT22;14766;51.380;13.762;2022-09-23T05:06:11;9.80;56.80
27266;DHT22;14766;51.380;13.762;2022-09-23T05:08:50;9.80;57.00
27266;DHT22;14766;51.380;13.762;2022-09-23T05:11:18;9.80;57.10
27266;DHT22;14766;51.380;13.762;2022-09-23T05:13:50;9.80;57.20
27266;DHT22;14766;51.380;13.762;2022-09-23T05:16:18;9.80;57.10
27266;DHT22;14766;51.380;13.762;2022-09-23T05:18:47;9.80;57.00
27266;DHT22;14766;51.380;13.762;2022-09-23T05:21:17;9.80;56.90
27266;DHT22;14766;51.380;13.762;2022-09-23T05:23:53;9.80;57.10
27266;DHT22;14766;51.380;13.762;2022-09-23T05:26:22;9.80;57.10
27266;DHT22;14766;51.380;13.762;2022-09-23T05:28:52;9.80;57.20
27266;DHT22;14766;51.380;13.762;2022-09-23T05:31:25;9.80;57.60
27266;DHT22;14766;51.380;13.762;2022-09-23T05:34:04;9.80;57.70
27266;DHT22;14766;51.380;13.762;2022-09-23T05:36:34;9.80;57.90
27266;DHT22;14766;51.380;13.762;2022-09-23T05:39:05;9.80;58.00
27266;DHT22;14766;51.380;13.762;2022-09-23T05:41:33;9.80;58.10
27266;DHT22;14766;51.380;13.762;2022-09-23T05:44:00;9.80;58.20
27266;DHT22;14766;51.380;13.762;2022-09-23T05:46:29;9.90;58.40
27266;DHT22;14766;51.380;13.762;2022-09-23T05:48:58;9.90;58.50
27266;DHT22;14766;51.380;13.762;2022-09-23T05:51:30;9.90;58.50
27266;DHT22;14766;51.380;13.762;2022-09-23T05:53:58;10.00;58.60
27266;DHT22;14766;51.380;13.762;2022-09-23T05:56:27;10.00;58.70
27266;DHT22;14766;51.380;13.762;2022-09-23T05:59:08;10.10;58.80
27266;DHT22;14766;51.380;13.762;2022-09-23T06:01:38;10.20;58.80
27266;DHT22;14766;51.380;13.762;2022-09-23T06:04:10;10.20;58.70
27266;DHT22;14766;51.380;13.762;2022-09-23T06:06:40;10.40;58.80
27266;DHT22;14766;51.380;13.762;2022-09-23T06:09:11;10.40;58.80
27266;DHT22;14766;51.380;13.762;2022-09-23T06:11:42;10.50;59.00
27266;DHT22;14766;51.380;13.762;2022-09-23T06:14:14;10.60;59.20
27266;DHT22;14766;51.380;13.762;2022-09-23T06:16:42;10.80;59.50
27266;DHT22;14766;51.380;13.762;2022-09-23T06:19:09;11.10;60.00
27266;DHT22;14766;51.380;13.762;2022-09-23T06:21:38;11.40;60.50
27266;DHT22;14766;51.380;13.762;2022-09-23T06:24:06;11.80;60.90
27266;DHT22;14766;51.380;13.762;2022-09-23T06:26:35;12.30;60.70
27266;DHT22;14766;51.380;13.762;2022-09-23T06:29:09;12.80;60.20
27266;DHT22;14766;51.380;13.762;2022-09-23T06:31:40;13.50;59.50
27266;DHT22;14766;51.380;13.762;2022-09-23T06:34:12;14.10;58.50
27266;DHT22;14766;51.380;13.762;2022-09-23T06:36:42;14.80;57.70
27266;DHT22;14766;51.380;13.762;2022-09-23T06:39:15;15.50;56.50
27266;DHT22;14766;51.380;13.762;2022-09-23T06:41:42;16.10;55.20
27266;DHT22;14766;51.380;13.762;2022-09-23T06:44:13;16.70;54.20
27266;DHT22;14766;51.380;13.762;2022-09-23T06:46:40;17.30;53.10
27266;DHT22;14766;51.380;13.762;2022-09-23T06:49:08;17.90;52.00
27266;DHT22;14766;51.380;13.762;2022-09-23T06:51:35;18.50;51.20
27266;DHT22;14766;51.380;13.762;2022-09-23T06:54:02;19.00;50.10
27266;DHT22;14766;51.380;13.762;2022-09-23T06:56:29;19.50;49.20
27266;DHT22;14766;51.380;13.762;2022-09-23T06:59:04;20.00;48.50
27266;DHT22;14766;51.380;13.762;2022-09-23T07:01:31;20.40;47.40
27266;DHT22;14766;51.380;13.762;2022-09-23T07:03:59;20.90;46.80
27266;DHT22;14766;51.380;13.762;2022-09-23T07:06:27;21.30;45.90
27266;DHT22;14766;51.380;13.762;2022-09-23T07:08:54;21.70;44.90
27266;DHT22;14766;51.380;13.762;2022-09-23T07:11:21;22.10;44.30
27266;DHT22;14766;51.380;13.762;2022-09-23T07:13:49;22.40;43.80
27266;DHT22;14766;51.380;13.762;2022-09-23T07:16:16;22.70;43.40
27266;DHT22;14766;51.380;13.762;2022-09-23T07:18:43;23.00;42.70
27266;DHT22;14766;51.380;13.762;2022-09-23T07:21:16;23.30;42.10
27266;DHT22;14766;51.380;13.762;2022-09-23T07:23:48;23.60;42.00
27266;DHT22;14766;51.380;13.762;2022-09-23T07:26:19;23.80;41.60
27266;DHT22;14766;51.380;13.762;2022-09-23T07:28:46;24.10;41.10
27266;DHT22;14766;51.380;13.762;2022-09-23T07:31:16;24.30;40.70
27266;DHT22;14766;51.380;13.762;2022-09-23T07:33:58;24.50;40.00
27266;DHT22;14766;51.380;13.762;2022-09-23T07:36:28;24.70;39.80
27266;DHT22;14766;51.380;13.762;2022-09-23T07:38:58;24.90;39.40
27266;DHT22;14766;51.380;13.762;2022-09-23T07:41:29;25.20;39.20
27266;DHT22;14766;51.380;13.762;2022-09-23T07:43:57;25.40;39.00
27266;DHT22;14766;51.380;13.762;2022-09-23T07:46:29;25.60;38.80
27266;DHT22;14766;51.380;13.762;2022-09-23T07:48:57;25.80;37.90
27266;DHT22;14766;51.380;13.762;2022-09-23T07:51:30;26.00;36.30
27266;DHT22;14766;51.380;13.762;2022-09-23T07:54:04;26.10;35.90
27266;DHT22;14766;51.380;13.762;2022-09-23T07:56:34;26.20;34.80
27266;DHT22;14766;51.380;13.762;2022-09-23T07:59:03;26.20;34.90
27266;DHT22;14766;51.380;13.762;2022-09-23T08:01:36;26.30;34.90
27266;DHT22;14766;51.380;13.762;2022-09-23T08:04:18;26.40;34.50
27266;DHT22;14766;51.380;13.762;2022-09-23T08:06:57;26.50;34.20
27266;DHT22;14766;51.380;13.762;2022-09-23T08:09:28;26.60;34.40
27266;DHT22;14766;51.380;13.762;2022-09-23T08:11:55;26.70;33.80
27266;DHT22;14766;51.380;13.762;2022-09-23T08:14:23;26.90;33.30
27266;DHT22;14766;51.380;13.762;2022-09-23T08:16:51;27.00;33.00
27266;DHT22;14766;51.380;13.762;2022-09-23T08:19:18;27.00;32.40
27266;DHT22;14766;51.380;13.762;2022-09-23T08:21:45;27.10;32.20
27266;DHT22;14766;51.380;13.762;2022-09-23T08:24:16;27.10;32.40
27266;DHT22;14766;51.380;13.762;2022-09-23T08:26:45;27.20;32.30
27266;DHT22;14766;51.380;13.762;2022-09-23T08:29:15;27.30;32.00
27266;DHT22;14766;51.380;13.762;2022-09-23T08:31:44;27.40;31.30
27266;DHT22;14766;51.380;13.762;2022-09-23T08:34:12;27.50;31.30
27266;DHT22;14766;51.380;13.762;2022-09-23T08:36:40;27.70;30.90
27266;DHT22;14766;51.380;13.762;2022-09-23T08:39:12;27.80;30.90
27266;DHT22;14766;51.380;13.762;2022-09-23T08:44:49;28.10;29.80
27266;DHT22;14766;51.380;13.762;2022-09-23T08:47:18;28.20;28.90
27266;DHT22;14766;51.380;13.762;2022-09-23T08:50:20;28.30;28.80
27266;DHT22;14766;51.380;13.762;2022-09-23T08:53:12;28.50;27.90
27266;DHT22;14766;51.380;13.762;2022-09-23T08:55:45;28.60;28.80
27266;DHT22;14766;51.380;13.762;2022-09-23T09:01:22;28.90;28.20
27266;DHT22;14766;51.380;13.762;2022-09-23T09:06:39;29.00;27.70
27266;DHT22;14766;51.380;13.762;2022-09-23T09:09:25;29.10;27.80
27266;DHT22;14766;51.380;13.762;2022-09-23T09:12:02;29.20;27.80
27266;DHT22;14766;51.380;13.762;2022-09-23T09:14:35;29.30;27.40
27266;DHT22;14766;51.380;13.762;2022-09-23T09:17:09;29.30;27.30
27266;DHT22;14766;51.380;13.762;2022-09-23T09:19:50;29.40;27.20
27266;DHT22;14766;51.380;13.762;2022-09-23T09:22:46;29.30;27.00
27266;DHT22;14766;51.380;13.762;2022-09-23T09:25:48;29.30;26.90
27266;DHT22;14766;51.380;13.762;2022-09-23T09:30:54;29.30;26.90
27266;DHT22;14766;51.380;13.762;2022-09-23T09:36:28;29.30;26.40
27266;DHT22;14766;51.380;13.762;2022-09-23T09:38:58;29.30;27.30
27266;DHT22;14766;51.380;13.762;2022-09-23T09:41:26;29.20;27.20
27266;DHT22;14766;51.380;13.762;2022-09-23T09:43:59;29.20;27.00
27266;DHT22;14766;51.380;13.762;2022-09-23T09:52:13;29.10;26.80
27266;DHT22;14766;51.380;13.762;2022-09-23T09:54:41;29.10;26.80
27266;DHT22;14766;51.380;13.762;2022-09-23T10:02:45;29.00;26.60
27266;DHT22;14766;51.380;13.762;2022-09-23T10:08:29;28.90;26.30
27266;DHT22;14766;51.380;13.762;2022-09-23T10:13:33;28.60;27.10
27266;DHT22;14766;51.380;13.762;2022-09-23T10:16:02;28.50;27.40
27266;DHT22;14766;51.380;13.762;2022-09-23T10:18:36;28.40;27.10
27266;DHT22;14766;51.380;13.762;2022-09-23T10:21:12;28.30;27.20
27266;DHT22;14766;51.380;13.762;2022-09-23T10:23:51;28.20;27.40
27266;DHT22;14766;51.380;13.762;2022-09-23T10:26:43;28.10;27.10
27266;DHT22;14766;51.380;13.762;2022-09-23T10:35:20;27.90;27.30
27266;DHT22;14766;51.380;13.762;2022-09-23T10:37:54;27.80;27.60
27266;DHT22;14766;51.380;13.762;2022-09-23T10:40:47;27.60;28.10
27266;DHT22;14766;51.380;13.762;2022-09-23T10:46:39;27.60;28.60
27266;DHT22;14766;51.380;13.762;2022-09-23T10:55:00;27.60;27.80
27266;DHT22;14766;51.380;13.762;2022-09-23T11:00:37;27.50;28.10
27266;DHT22;14766;51.380;13.762;2022-09-23T11:03:34;27.40;27.30
27266;DHT22;14766;51.380;13.762;2022-09-23T11:09:08;27.30;27.80
27266;DHT22;14766;51.380;13.762;2022-09-23T11:23:53;26.80;26.80
27266;DHT22;14766;51.380;13.762;2022-09-23T11:26:53;26.60;27.30
27266;DHT22;14766;51.380;13.762;2022-09-23T11:37:42;26.40;27.40
27266;DHT22;14766;51.380;13.762;2022-09-23T11:40:39;26.40;28.00
27266;DHT22;14766;51.380;13.762;2022-09-23T11:46:19;26.30;28.10
27266;DHT22;14766;51.380;13.762;2022-09-23T11:49:15;26.20;27.60
27266;DHT22;14766;51.380;13.762;2022-09-23T11:57:28;25.90;27.70
27266;DHT22;14766;51.380;13.762;2022-09-23T12:00:15;25.90;27.20
27266;DHT22;14766;51.380;13.762;2022-09-23T12:06:37;25.60;27.00
27266;DHT22;14766;51.380;13.762;2022-09-23T12:09:20;25.50;27.90
27266;DHT22;14766;51.380;13.762;2022-09-23T12:12:26;25.40;28.30
27266;DHT22;14766;51.380;13.762;2022-09-23T12:15:01;25.20;28.10
27266;DHT22;14766;51.380;13.762;2022-09-23T12:26:13;24.90;29.40
27266;DHT22;14766;51.380;13.762;2022-09-23T12:28:45;24.80;29.60
27266;DHT22;14766;51.380;13.762;2022-09-23T12:31:17;24.80;29.60
27266;DHT22;14766;51.380;13.762;2022-09-23T12:33:52;24.80;29.70
27266;DHT22;14766;51.380;13.762;2022-09-23T12:36:30;24.70;29.70
27266;DHT22;14766;51.380;13.762;2022-09-23T12:39:16;24.70;29.40
27266;DHT22;14766;51.380;13.762;2022-09-23T12:41:46;24.60;29.50
27266;DHT22;14766;51.380;13.762;2022-09-23T12:44:40;24.60;29.80
27266;DHT22;14766;51.380;13.762;2022-09-23T12:49:52;24.50;28.80
27266;DHT22;14766;51.380;13.762;2022-09-23T12:52:26;24.50;29.00
27266;DHT22;14766;51.380;13.762;2022-09-23T12:57:44;24.40;29.10
27266;DHT22;14766;51.380;13.762;2022-09-23T13:00:23;24.40;29.20
27266;DHT22;14766;51.380;13.762;2022-09-23T13:02:58;24.40;29.30
27266;DHT22;14766;51.380;13.762;2022-09-23T13:06:00;24.30;29.80
27266;DHT22;14766;51.380;13.762;2022-09-23T13:08:46;24.20;30.50
27266;DHT22;14766;51.380;13.762;2022-09-23T13:11:26;24.10;30.60
27266;DHT22;14766;51.380;13.762;2022-09-23T13:13:57;24.00;30.80
27266;DHT22;14766;51.380;13.762;2022-09-23T13:16:34;24.00;30.80
27266;DHT22;14766;51.380;13.762;2022-09-23T13:22:06;23.80;31.10
27266;DHT22;14766;51.380;13.762;2022-09-23T13:24:39;23.80;31.40
27266;DHT22;14766;51.380;13.762;2022-09-23T13:27:27;23.80;31.80
27266;DHT22;14766;51.380;13.762;2022-09-23T13:30:17;23.70;31.00
27266;DHT22;14766;51.380;13.762;2022-09-23T13:33:15;23.70;31.10
27266;DHT22;14766;51.380;13.762;2022-09-23T13:35:47;23.60;30.80
27266;DHT22;14766;51.380;13.762;2022-09-23T13:40:56;23.50;31.20
27266;DHT22;14766;51.380;13.762;2022-09-23T13:43:35;23.40;31.20
27266;DHT22;14766;51.380;13.762;2022-09-23T13:46:12;23.40;31.30
27266;DHT22;14766;51.380;13.762;2022-09-23T13:48:47;23.40;31.30
27266;DHT22;14766;51.380;13.762;2022-09-23T13:51:24;23.30;31.70
27266;DHT22;14766;51.380;13.762;2022-09-23T13:53:54;23.30;31.70
27266;DHT22;14766;51.380;13.762;2022-09-23T13:56:25;23.30;32.00
27266;DHT22;14766;51.380;13.762;2022-09-23T13:58:53;23.20;31.80
27266;DHT22;14766;51.380;13.762;2022-09-23T14:01:30;23.20;31.30
27266;DHT22;14766;51.380;13.762;2022-09-23T14:04:01;23.10;31.00
27266;DHT22;14766;51.380;13.762;2022-09-23T14:06:29;23.00;30.80
27266;DHT22;14766;51.380;13.762;2022-09-23T14:09:00;23.00;30.80
27266;DHT22;14766;51.380;13.762;2022-09-23T14:11:32;23.00;30.80
27266;DHT22;14766;51.380;13.762;2022-09-23T14:14:03;23.00;31.00
27266;DHT22;14766;51.380;13.762;2022-09-23T14:16:38;23.00;31.30
27266;DHT22;14766;51.380;13.762;2022-09-23T14:19:15;23.00;31.70
27266;DHT22;14766;51.380;13.762;2022-09-23T14:21:47;23.00;31.70
27266;DHT22;14766;51.380;13.762;2022-09-23T14:24:21;23.00;31.70
27266;DHT22;14766;51.380;13.762;2022-09-23T14:29:35;23.00;31.30
27266;DHT22;14766;51.380;13.762;2022-09-23T14:32:10;22.90;31.30
27266;DHT22;14766;51.380;13.762;2022-09-23T14:34:41;22.90;31.50
27266;DHT22;14766;51.380;13.762;2022-09-23T14:39:59;22.90;31.00
27266;DHT22;14766;51.380;13.762;2022-09-23T14:42:27;22.90;30.80
27266;DHT22;14766;51.380;13.762;2022-09-23T14:44:55;22.90;31.00
27266;DHT22;14766;51.380;13.762;2022-09-23T14:47:29;22.80;31.70
27266;DHT22;14766;51.380;13.762;2022-09-23T14:49:57;22.80;31.00
27266;DHT22;14766;51.380;13.762;2022-09-23T14:52:49;22.80;31.30
27266;DHT22;14766;51.380;13.762;2022-09-23T14:55:17;22.70;31.40
27266;DHT22;14766;51.380;13.762;2022-09-23T14:57:44;22.60;31.40
27266;DHT22;14766;51.380;13.762;2022-09-23T15:00:19;22.60;31.50
27266;DHT22;14766;51.380;13.762;2022-09-23T15:02:59;22.50;31.70
27266;DHT22;14766;51.380;13.762;2022-09-23T15:05:45;22.40;31.90
27266;DHT22;14766;51.380;13.762;2022-09-23T15:08:21;22.30;32.10
27266;DHT22;14766;51.380;13.762;2022-09-23T15:10:49;22.20;32.30
27266;DHT22;14766;51.380;13.762;2022-09-23T15:13:20;22.10;32.80
27266;DHT22;14766;51.380;13.762;2022-09-23T15:15:51;22.10;33.20
27266;DHT22;14766;51.380;13.762;2022-09-23T15:18:25;22.00;33.20
27266;DHT22;14766;51.380;13.762;2022-09-23T15:21:00;22.00;33.40
27266;DHT22;14766;51.380;13.762;2022-09-23T15:23:53;21.90;33.50
27266;DHT22;14766;51.380;13.762;2022-09-23T15:26:23;21.90;34.10
27266;DHT22;14766;51.380;13.762;2022-09-23T15:28:51;21.80;33.70
27266;DHT22;14766;51.380;13.762;2022-09-23T15:31:24;21.80;33.70
27266;DHT22;14766;51.380;13.762;2022-09-23T15:33:52;21.70;33.80
27266;DHT22;14766;51.380;13.762;2022-09-23T15:36:26;21.70;34.00
27266;DHT22;14766;51.380;13.762;2022-09-23T15:38:54;21.70;34.60
27266;DHT22;14766;51.380;13.762;2022-09-23T15:41:23;21.70;34.70
27266;DHT22;14766;51.380;13.762;2022-09-23T15:43:51;21.70;34.60
27266;DHT22;14766;51.380;13.762;2022-09-23T15:46:28;21.60;34.40
27266;DHT22;14766;51.380;13.762;2022-09-23T15:49:01;21.60;35.10
27266;DHT22;14766;51.380;13.762;2022-09-23T15:51:30;21.60;35.50
27266;DHT22;14766;51.380;13.762;2022-09-23T15:53:58;21.50;36.20
27266;DHT22;14766;51.380;13.762;2022-09-23T15:56:25;21.50;37.10
27266;DHT22;14766;51.380;13.762;2022-09-23T15:58:54;21.40;37.70
27266;DHT22;14766;51.380;13.762;2022-09-23T16:01:29;21.40;38.30
27266;DHT22;14766;51.380;13.762;2022-09-23T16:03:57;21.40;39.30
27266;DHT22;14766;51.380;13.762;2022-09-23T16:06:27;21.40;40.70
27266;DHT22;14766;51.380;13.762;2022-09-23T16:08:56;21.30;39.80
27266;DHT22;14766;51.380;13.762;2022-09-23T16:11:25;21.20;39.60
27266;DHT22;14766;51.380;13.762;2022-09-23T16:13:53;21.20;40.00
27266;DHT22;14766;51.380;13.762;2022-09-23T16:16:20;21.10;40.60
27266;DHT22;14766;51.380;13.762;2022-09-23T16:18:48;21.00;41.30
27266;DHT22;14766;51.380;13.762;2022-09-23T16:21:23;21.00;41.70
27266;DHT22;14766;51.380;13.762;2022-09-23T16:23:51;20.90;42.00
27266;DHT22;14766;51.380;13.762;2022-09-23T16:26:21;20.80;42.20
27266;DHT22;14766;51.380;13.762;2022-09-23T16:28:53;20.80;42.50
27266;DHT22;14766;51.380;13.762;2022-09-23T16:31:22;20.70;43.00
27266;DHT22;14766;51.380;13.762;2022-09-23T16:33:52;20.70;43.10
27266;DHT22;14766;51.380;13.762;2022-09-23T16:36:26;20.60;43.20
27266;DHT22;14766;51.380;13.762;2022-09-23T16:38:54;20.50;43.80
27266;DHT22;14766;51.380;13.762;2022-09-23T16:41:23;20.50;44.00
27266;DHT22;14766;51.380;13.762;2022-09-23T16:43:51;20.40;43.90
27266;DHT22;14766;51.380;13.762;2022-09-23T16:46:19;20.40;44.30
27266;DHT22;14766;51.380;13.762;2022-09-23T16:48:47;20.30;44.50
27266;DHT22;14766;51.380;13.762;2022-09-23T16:51:20;20.20;44.70
27266;DHT22;14766;51.380;13.762;2022-09-23T16:53:49;20.20;45.20
27266;DHT22;14766;51.380;13.762;2022-09-23T16:56:18;20.10;45.30
27266;DHT22;14766;51.380;13.762;2022-09-23T16:58:53;20.00;45.60
27266;DHT22;14766;51.380;13.762;2022-09-23T17:01:23;19.90;45.90
27266;DHT22;14766;51.380;13.762;2022-09-23T17:04:09;19.90;46.00
27266;DHT22;14766;51.380;13.762;2022-09-23T17:06:48;19.80;46.30
27266;DHT22;14766;51.380;13.762;2022-09-23T17:09:17;19.70;46.80
27266;DHT22;14766;51.380;13.762;2022-09-23T17:11:45;19.60;46.90
27266;DHT22;14766;51.380;13.762;2022-09-23T17:14:15;19.50;46.90
27266;DHT22;14766;51.380;13.762;2022-09-23T17:16:42;19.50;46.90
27266;DHT22;14766;51.380;13.762;2022-09-23T17:19:10;19.50;47.20
27266;DHT22;14766;51.380;13.762;2022-09-23T17:21:38;19.40;47.20
27266;DHT22;14766;51.380;13.762;2022-09-23T17:24:05;19.30;47.40
27266;DHT22;14766;51.380;13.762;2022-09-23T17:26:33;19.20;47.60
27266;DHT22;14766;51.380;13.762;2022-09-23T17:29:00;19.20;47.50
27266;DHT22;14766;51.380;13.762;2022-09-23T17:31:28;19.10;47.90
27266;DHT22;14766;51.380;13.762;2022-09-23T17:33:56;19.00;48.10
27266;DHT22;14766;51.380;13.762;2022-09-23T17:36:24;19.00;48.20
27266;DHT22;14766;51.380;13.762;2022-09-23T17:38:53;18.90;48.30
27266;DHT22;14766;51.380;13.762;2022-09-23T17:41:20;18.90;48.50
27266;DHT22;14766;51.380;13.762;2022-09-23T17:43:53;18.80;48.80
27266;DHT22;14766;51.380;13.762;2022-09-23T17:46:22;18.80;49.10
27266;DHT22;14766;51.380;13.762;2022-09-23T17:48:49;18.70;49.40
27266;DHT22;14766;51.380;13.762;2022-09-23T17:51:21;18.70;49.60
27266;DHT22;14766;51.380;13.762;2022-09-23T17:53:48;18.60;49.70
27266;DHT22;14766;51.380;13.762;2022-09-23T17:58:46;18.50;50.20
27266;DHT22;14766;51.380;13.762;2022-09-23T18:01:17;18.40;50.30
27266;DHT22;14766;51.380;13.762;2022-09-23T18:03:45;18.40;50.40
27266;DHT22;14766;51.380;13.762;2022-09-23T18:06:15;18.30;50.60
27266;DHT22;14766;51.380;13.762;2022-09-23T18:08:43;18.30;50.60
27266;DHT22;14766;51.380;13.762;2022-09-23T18:11:15;18.30;50.80
27266;DHT22;14766;51.380;13.762;2022-09-23T18:14:06;18.20;51.00
27266;DHT22;14766;51.380;13.762;2022-09-23T18:16:35;18.20;51.20
27266;DHT22;14766;51.380;13.762;2022-09-23T18:19:04;18.10;51.30
27266;DHT22;14766;51.380;13.762;2022-09-23T18:21:37;18.10;51.50
27266;DHT22;14766;51.380;13.762;2022-09-23T18:24:06;18.00;51.60